createdAt,value
2018-04-04T00:02:01.258Z,18.03
2018-04-04T00:04:29.159Z,8.57
2018-04-04T00:06:56.722Z,15.67
2018-04-04T00:09:24.287Z,21.83
2018-04-04T00:11:51.857Z,30.43
2018-04-04T00:14:19.402Z,19.70
2018-04-04T00:16:47.235Z,21.10
2018-04-04T00:19:14.743Z,15.53
2018-04-04T00:21:42.282Z,19.93
2018-04-04T00:24:09.850Z,25.13
2018-04-04T00:26:37.398Z,8.20
2018-04-04T00:29:05.364Z,11.50
2018-04-04T00:31:32.920Z,20.67
2018-04-04T00:34:00.471Z,18.03
2018-04-04T00:36:28.039Z,24.57
2018-04-04T00:38:55.590Z,12.70
2018-04-04T00:41:23.569Z,40.47
2018-04-04T00:43:51.133Z,19.30
2018-04-04T00:46:18.682Z,20.73
2018-04-04T00:48:46.254Z,14.30
2018-04-04T00:51:13.804Z,22.70
2018-04-04T00:53:41.414Z,22.57
2018-04-04T00:56:08.973Z,13.83
2018-04-04T00:58:36.532Z,14.40
2018-04-04T01:01:04.111Z,21.40
2018-04-04T01:03:31.667Z,27.53
2018-04-04T01:05:59.413Z,18.03
2018-04-04T01:08:26.971Z,19.90
2018-04-04T01:10:54.522Z,12.73
2018-04-04T01:13:22.097Z,18.10
2018-04-04T01:15:49.754Z,15.03
2018-04-04T01:18:17.470Z,26.67
2018-04-04T01:20:45.028Z,13.77
2018-04-04T01:23:12.590Z,18.93
2018-04-04T01:25:40.166Z,12.70
2018-04-04T01:28:07.710Z,24.80
2018-04-04T01:30:35.370Z,15.00
2018-04-04T01:33:02.939Z,37.43
2018-04-04T01:35:30.603Z,12.60
2018-04-04T01:37:58.175Z,14.00
2018-04-04T01:40:25.722Z,17.00
2018-04-04T01:42:53.371Z,16.40
2018-04-04T01:45:20.918Z,12.07
2018-04-04T01:47:48.470Z,22.90
2018-04-04T01:50:16.045Z,18.57
2018-04-04T01:52:43.606Z,11.00
2018-04-04T01:55:11.206Z,26.70
2018-04-04T01:57:38.772Z,22.33
2018-04-04T02:00:06.326Z,14.17
2018-04-04T02:02:33.905Z,25.00
2018-04-04T02:05:01.450Z,15.20
2018-04-04T02:07:29.046Z,25.33
2018-04-04T02:09:56.611Z,13.57
2018-04-04T02:12:24.166Z,24.63
2018-04-04T02:14:51.748Z,11.23
2018-04-04T02:17:19.295Z,16.10
2018-04-04T02:19:47.378Z,16.23
2018-04-04T02:22:14.936Z,11.27
2018-04-04T02:24:42.494Z,15.13
2018-04-04T02:27:10.142Z,21.83
2018-04-04T02:29:37.818Z,24.57
2018-04-04T02:32:05.454Z,25.05
2018-04-04T02:34:33.966Z,13.00
2018-04-04T02:37:01.519Z,31.10
2018-04-04T02:39:29.099Z,22.37
2018-04-04T02:41:56.647Z,16.33
2018-04-04T02:44:24.405Z,8.73
2018-04-04T02:46:51.962Z,12.00
2018-04-04T02:49:19.884Z,20.50
2018-04-04T02:51:47.462Z,20.43
2018-04-04T02:54:15.035Z,23.08
2018-04-04T02:56:42.895Z,14.90
2018-04-04T02:59:10.483Z,26.73
2018-04-04T03:01:38.040Z,13.25
2018-04-04T03:04:05.643Z,22.60
2018-04-04T03:06:33.196Z,19.53
2018-04-04T03:09:00.918Z,18.97
2018-04-04T03:11:28.475Z,15.52
2018-04-04T03:13:56.033Z,23.02
2018-04-04T03:16:23.629Z,14.60
2018-04-04T03:18:51.193Z,29.37
2018-04-04T03:21:19.225Z,26.03
2018-04-04T03:23:46.791Z,17.73
2018-04-04T03:26:14.346Z,26.73
2018-04-04T03:28:42.227Z,20.40
2018-04-04T03:31:09.870Z,11.57
2018-04-04T03:33:37.434Z,19.02
2018-04-04T03:36:05.019Z,13.80
2018-04-04T03:38:32.605Z,18.45
2018-04-04T03:41:00.161Z,28.05
2018-04-04T03:43:27.878Z,18.05
2018-04-04T03:45:55.434Z,15.98
2018-04-04T03:48:23.298Z,31.60
2018-04-04T03:50:50.882Z,12.65
2018-04-04T03:53:18.441Z,18.58
2018-04-04T03:55:46.031Z,25.27
2018-04-04T03:58:14.373Z,20.17
2018-04-04T04:00:41.330Z,32.28
2018-04-04T04:03:08.887Z,20.30
2018-04-04T04:05:36.474Z,16.20
2018-04-04T04:08:04.032Z,10.88
2018-04-04T04:10:31.647Z,28.40
2018-04-04T04:12:59.406Z,17.85
2018-04-04T04:15:27.558Z,28.02
2018-04-04T04:17:55.137Z,20.42
2018-04-04T04:20:23.370Z,18.60
2018-04-04T04:22:50.930Z,27.87
2018-04-04T04:25:18.490Z,21.58
2018-04-04T04:27:46.067Z,13.23
2018-04-04T04:30:14.673Z,18.20
2018-04-04T04:32:42.222Z,17.33
2018-04-04T04:35:09.816Z,21.75
2018-04-04T04:37:37.866Z,13.80
2018-04-04T04:40:05.424Z,14.32
2018-04-04T04:42:33.014Z,27.37
2018-04-04T04:45:00.569Z,28.08
2018-04-04T04:47:28.147Z,14.65
2018-04-04T04:49:55.755Z,17.62
2018-04-04T04:52:23.731Z,16.23
2018-04-04T04:54:51.803Z,27.48
2018-04-04T04:57:19.364Z,32.17
2018-04-04T04:59:47.435Z,19.83
2018-04-04T05:02:15.024Z,22.65
2018-04-04T05:04:43.578Z,35.05
2018-04-04T05:07:14.694Z,30.98
2018-04-04T05:09:43.180Z,14.43
2018-04-04T05:12:11.071Z,15.52
2018-04-04T05:14:38.619Z,17.73
2018-04-04T05:17:06.174Z,17.27
2018-04-04T05:19:33.776Z,13.68
2018-04-04T05:22:01.345Z,18.95
2018-04-04T05:24:29.480Z,19.30
2018-04-04T05:26:57.958Z,22.67
2018-04-04T05:29:25.519Z,14.32
2018-04-04T05:31:53.106Z,9.70
2018-04-04T05:34:21.558Z,15.13
2018-04-04T05:36:50.038Z,19.37
2018-04-04T05:39:17.595Z,21.37
2018-04-04T05:41:45.156Z,23.70
2018-04-04T05:44:12.742Z,24.85
2018-04-04T05:46:40.316Z,16.00
2018-04-04T05:49:08.041Z,14.68
2018-04-04T05:51:36.455Z,15.02
2018-04-04T05:54:04.024Z,13.68
2018-04-04T05:56:31.629Z,13.55
2018-04-04T05:58:59.194Z,21.25
2018-04-04T06:01:27.047Z,23.40
2018-04-04T06:03:54.609Z,27.08
2018-04-04T06:06:22.172Z,17.02
2018-04-04T06:08:49.756Z,20.10
2018-04-04T06:11:17.404Z,13.45
2018-04-04T06:13:45.332Z,23.85
2018-04-04T06:16:12.871Z,54.70
2018-04-04T06:18:40.492Z,23.37
2018-04-04T06:21:08.147Z,6.97
2018-04-04T06:23:35.712Z,21.35
2018-04-04T06:26:03.483Z,22.65
2018-04-04T06:28:31.038Z,18.20
2018-04-04T06:30:58.594Z,36.88
2018-04-04T06:33:26.191Z,27.47
2018-04-04T06:35:53.749Z,14.77
2018-04-04T06:38:21.586Z,23.58
2018-04-04T06:40:49.131Z,16.30
2018-04-04T06:43:16.802Z,13.07
2018-04-04T06:45:44.394Z,23.35
2018-04-04T06:48:11.934Z,14.13
2018-04-04T06:50:39.686Z,18.53
2018-04-04T06:53:07.234Z,15.53
2018-04-04T06:55:34.874Z,26.27
2018-04-04T06:58:02.454Z,31.37
2018-04-04T07:00:30.742Z,23.70
2018-04-04T07:02:58.866Z,27.00
2018-04-04T07:05:30.119Z,22.17
2018-04-04T07:07:57.721Z,22.67
2018-04-04T07:10:25.696Z,23.87
2018-04-04T07:12:53.368Z,21.20
2018-04-04T07:15:21.320Z,24.03
2018-04-04T07:17:48.981Z,22.90
2018-04-04T07:20:16.643Z,21.63
2018-04-04T07:22:44.346Z,21.40
2018-04-04T07:25:11.924Z,12.70
2018-04-04T07:27:40.653Z,25.50
2018-04-04T07:30:08.465Z,26.73
2018-04-04T07:32:37.046Z,14.73
2018-04-04T07:35:04.969Z,17.70
2018-04-04T07:37:32.645Z,14.03
2018-04-04T07:40:00.396Z,14.50
2018-04-04T07:42:28.144Z,19.70
2018-04-04T07:44:55.717Z,37.90
2018-04-04T07:47:24.103Z,15.00
2018-04-04T07:49:52.096Z,24.03
2018-04-04T07:52:20.207Z,17.53
2018-04-04T07:54:48.004Z,17.80
2018-04-04T07:57:15.700Z,28.53
2018-04-04T07:59:43.456Z,13.63
2018-04-04T08:02:11.018Z,26.67
2018-04-04T08:04:38.993Z,27.67
2018-04-04T08:07:06.547Z,23.57
2018-04-04T08:09:34.154Z,12.50
2018-04-04T08:12:01.848Z,14.80
2018-04-04T08:14:29.579Z,15.17
2018-04-04T08:16:57.432Z,14.93
2018-04-04T08:19:25.302Z,18.73
2018-04-04T08:21:53.189Z,13.53
2018-04-04T08:24:21.155Z,18.30
2018-04-04T08:26:50.165Z,20.63
2018-04-04T08:29:18.449Z,21.93
2018-04-04T08:31:46.309Z,15.50
2018-04-04T08:34:14.091Z,21.40
2018-04-04T08:36:41.836Z,18.60
2018-04-04T08:39:09.809Z,24.83
2018-04-04T08:41:37.980Z,17.13
2018-04-04T08:44:05.920Z,20.40
2018-04-04T08:46:33.920Z,22.93
2018-04-04T08:49:01.680Z,13.63
2018-04-04T08:51:29.547Z,29.13
2018-04-04T08:53:57.665Z,24.17
2018-04-04T08:56:25.588Z,26.30
2018-04-04T08:58:53.453Z,45.40
2018-04-04T09:01:21.423Z,18.73
2018-04-04T09:03:49.434Z,31.47
2018-04-04T09:06:17.566Z,21.63
2018-04-04T09:08:45.535Z,19.43
2018-04-04T09:11:13.403Z,26.43
2018-04-04T09:13:41.293Z,29.37
2018-04-04T09:16:09.254Z,25.27
2018-04-04T09:18:36.992Z,32.20
2018-04-04T09:21:04.715Z,22.10
2018-04-04T09:23:32.435Z,24.63
2018-04-04T09:26:01.102Z,16.53
2018-04-04T09:28:28.844Z,14.33
2018-04-04T09:30:56.872Z,22.20
2018-04-04T09:33:24.814Z,21.40
2018-04-04T09:35:52.479Z,23.17
2018-04-04T09:38:20.969Z,28.53
2018-04-04T09:40:48.215Z,16.17
2018-04-04T09:43:17.125Z,23.23
2018-04-04T09:45:45.459Z,11.37
2018-04-04T09:48:13.681Z,10.30
2018-04-04T09:50:41.517Z,18.83
2018-04-04T09:53:09.166Z,18.67
2018-04-04T09:55:37.359Z,12.57
2018-04-04T09:58:05.118Z,21.97
2018-04-04T10:00:39.078Z,16.23
2018-04-04T10:03:06.769Z,13.13
2018-04-04T10:05:34.676Z,12.10
2018-04-04T10:08:02.627Z,9.93
2018-04-04T10:10:30.495Z,11.50
2018-04-04T10:12:58.668Z,10.43
2018-04-04T10:15:26.743Z,19.37
2018-04-04T10:17:54.917Z,11.90
2018-04-04T10:20:23.701Z,15.80
2018-04-04T10:22:51.581Z,17.50
2018-04-04T10:25:19.593Z,9.67
2018-04-04T10:27:47.611Z,21.77
2018-04-04T10:30:15.462Z,16.17
2018-04-04T10:32:43.750Z,10.63
2018-04-04T10:35:11.821Z,9.53
2018-04-04T10:37:40.094Z,20.27
2018-04-04T10:40:08.107Z,12.43
2018-04-04T10:42:35.933Z,8.03
2018-04-04T10:45:04.004Z,15.50
2018-04-04T10:47:31.973Z,12.63
2018-04-04T10:49:59.942Z,7.73
2018-04-04T10:52:27.912Z,13.53
2018-04-04T10:54:56.706Z,25.70
2018-04-04T10:57:24.553Z,4.47
2018-04-04T10:59:52.517Z,8.73
2018-04-04T11:02:20.811Z,7.67
2018-04-04T11:04:48.676Z,7.10
2018-04-04T11:07:16.543Z,13.43
2018-04-04T11:09:44.404Z,3.90
2018-04-04T11:12:12.273Z,16.57
2018-04-04T11:14:40.218Z,11.03
2018-04-04T11:17:08.090Z,12.60
2018-04-04T11:19:35.979Z,5.80
2018-04-04T11:22:03.743Z,7.23
2018-04-04T11:24:31.407Z,12.37
2018-04-04T11:26:59.171Z,5.40
2018-04-04T11:29:26.778Z,5.00
2018-04-04T11:31:54.564Z,9.83
2018-04-04T11:34:22.461Z,8.20
2018-04-04T11:36:50.102Z,9.83
2018-04-04T11:39:18.069Z,10.23
2018-04-04T11:41:45.712Z,9.80
2018-04-04T11:44:13.263Z,17.83
2018-04-04T11:46:41.152Z,11.57
2018-04-04T11:49:08.924Z,7.97
2018-04-04T11:51:36.550Z,12.40
2018-04-04T11:54:04.371Z,4.23
2018-04-04T11:56:32.223Z,6.37
2018-04-04T11:59:00.104Z,5.43
2018-04-04T12:01:27.826Z,6.00
2018-04-04T12:03:55.638Z,11.23
2018-04-04T12:06:23.202Z,5.30
2018-04-04T12:08:50.815Z,13.17
2018-04-04T12:11:19.642Z,16.63
2018-04-04T12:13:48.226Z,5.53
2018-04-04T12:16:16.402Z,13.90
2018-04-04T12:18:44.470Z,7.63
2018-04-04T12:21:12.680Z,4.80
2018-04-04T12:23:40.592Z,3.83
2018-04-04T12:26:08.789Z,9.43
2018-04-04T12:28:37.022Z,7.23
2018-04-04T12:31:04.938Z,7.33
2018-04-04T12:33:32.480Z,4.83
2018-04-04T12:36:00.120Z,12.33
2018-04-04T12:38:28.178Z,7.50
2018-04-04T12:40:56.100Z,6.53
2018-04-04T12:43:23.654Z,5.93
2018-04-04T12:45:51.550Z,10.67
2018-04-04T12:48:20.469Z,8.63
2018-04-04T12:50:48.578Z,10.03
2018-04-04T12:53:16.552Z,13.23
2018-04-04T12:55:44.515Z,26.47
2018-04-04T12:58:12.662Z,21.13
2018-04-04T13:00:41.174Z,26.07
2018-04-04T13:03:10.015Z,34.13
2018-04-04T13:05:38.247Z,32.93
2018-04-04T13:08:06.319Z,19.30
2018-04-04T13:10:34.172Z,17.33
2018-04-04T13:13:02.030Z,21.50
2018-04-04T13:15:29.860Z,25.03
2018-04-04T13:17:57.918Z,31.23
2018-04-04T13:20:25.786Z,34.73
2018-04-04T13:22:54.120Z,16.37
2018-04-04T13:25:22.089Z,21.73
2018-04-04T13:27:49.955Z,9.90
2018-04-04T13:30:18.069Z,15.10
2018-04-04T13:32:46.217Z,5.00
2018-04-04T13:35:14.373Z,13.40
2018-04-04T13:37:42.342Z,6.23
2018-04-04T13:40:11.336Z,2.40
2018-04-04T13:42:39.058Z,1.30
2018-04-04T13:45:07.393Z,1.53
2018-04-04T13:47:35.857Z,1.00
2018-04-04T13:50:03.544Z,2.80
2018-04-04T13:52:32.583Z,3.00
2018-04-04T13:55:00.584Z,5.13
2018-04-04T13:57:28.620Z,1.00
2018-04-04T13:59:56.727Z,1.63
2018-04-04T14:02:24.694Z,1.10
2018-04-04T14:04:53.276Z,1.30
2018-04-04T14:07:21.252Z,1.10
2018-04-04T14:09:49.903Z,1.00
2018-04-04T14:12:18.005Z,3.30
2018-04-04T14:14:45.751Z,1.73
2018-04-04T14:17:13.944Z,1.83
2018-04-04T14:19:42.624Z,3.40
2018-04-04T14:22:10.413Z,4.17
2018-04-04T14:24:38.434Z,3.93
2018-04-04T14:27:06.327Z,2.93
2018-04-04T14:29:34.197Z,1.30
2018-04-04T14:32:02.062Z,4.97
2018-04-04T14:34:29.929Z,6.40
2018-04-04T14:36:58.970Z,1.20
2018-04-04T14:39:26.893Z,1.97
2018-04-04T14:41:55.423Z,2.70
2018-04-04T14:44:24.265Z,2.73
2018-04-04T14:46:52.438Z,1.20
2018-04-04T14:49:20.918Z,1.47
2018-04-04T14:51:48.886Z,2.00
2018-04-04T14:54:16.957Z,5.07
2018-04-04T14:56:46.034Z,5.23
2018-04-04T14:59:14.738Z,5.33
2018-04-04T15:01:42.569Z,2.60
2018-04-04T15:04:10.780Z,2.07
2018-04-04T15:06:38.762Z,3.40
2018-04-04T15:09:06.757Z,2.70
2018-04-04T15:11:35.709Z,1.37
2018-04-04T15:14:04.059Z,2.90
2018-04-04T15:16:32.526Z,2.57
2018-04-04T15:19:01.609Z,2.57
2018-04-04T15:21:29.533Z,2.57
2018-04-04T15:23:57.499Z,1.73
2018-04-04T15:26:25.572Z,3.27
2018-04-04T15:28:53.595Z,1.93
2018-04-04T15:31:21.953Z,1.10
2018-04-04T15:33:49.962Z,2.13
2018-04-04T15:36:18.371Z,1.43
2018-04-04T15:38:47.362Z,3.07
2018-04-04T15:41:15.330Z,1.53
2018-04-04T15:43:44.324Z,2.60
2018-04-04T15:46:12.089Z,3.07
2018-04-04T15:48:40.059Z,11.13
2018-04-04T15:51:08.138Z,2.90
2018-04-04T15:53:36.102Z,2.73
2018-04-04T15:56:04.067Z,2.40
2018-04-04T15:58:32.040Z,1.73
2018-04-04T16:01:00.934Z,2.13
2018-04-04T16:03:29.513Z,2.53
2018-04-04T16:05:57.376Z,1.40
2018-04-04T16:08:25.500Z,1.70
2018-04-04T16:10:53.326Z,4.43
2018-04-04T16:13:21.282Z,4.23
2018-04-04T16:15:49.428Z,2.60
2018-04-04T16:18:17.329Z,1.50
2018-04-04T16:20:45.292Z,2.17
2018-04-04T16:23:13.792Z,4.32
2018-04-04T16:25:41.713Z,1.73
2018-04-04T16:28:09.915Z,5.57
2018-04-04T16:30:37.853Z,3.87
2018-04-04T16:33:05.853Z,3.37
2018-04-04T16:35:34.181Z,3.67
2018-04-04T16:38:02.203Z,2.25
2018-04-04T16:40:30.142Z,2.15
2018-04-04T16:42:58.448Z,3.83
2018-04-04T16:45:26.518Z,1.20
2018-04-04T16:47:54.588Z,2.08
2018-04-04T16:50:22.556Z,1.35
2018-04-04T16:52:50.834Z,1.48
2018-04-04T16:55:19.622Z,4.10
2018-04-04T16:57:48.718Z,3.97
2018-04-04T17:00:17.061Z,1.90
2018-04-04T17:02:45.474Z,2.12
2018-04-04T17:05:13.762Z,1.70
2018-04-04T17:07:41.822Z,2.25
2018-04-04T17:10:10.138Z,3.37
2018-04-04T17:12:38.990Z,2.60
2018-04-04T17:15:06.958Z,1.48
2018-04-04T17:17:35.068Z,1.20
2018-04-04T17:20:04.081Z,2.35
2018-04-04T17:22:32.093Z,1.73
2018-04-04T17:25:00.267Z,1.65
2018-04-04T17:27:28.445Z,3.55
2018-04-04T17:29:56.980Z,2.58
2018-04-04T17:32:24.993Z,1.30
2018-04-04T17:34:52.963Z,1.25
2018-04-04T17:37:21.034Z,2.67
2018-04-04T17:39:49.292Z,1.67
2018-04-04T17:42:17.732Z,2.60
2018-04-04T17:44:45.760Z,2.62
2018-04-04T17:47:13.728Z,3.22
2018-04-04T17:49:41.902Z,4.93
2018-04-04T17:52:10.677Z,3.37
2018-04-04T17:54:38.659Z,6.55
2018-04-04T17:57:06.787Z,4.03
2018-04-04T17:59:34.677Z,2.35
2018-04-04T18:02:03.488Z,2.10
2018-04-04T18:04:32.066Z,2.15
2018-04-04T18:07:00.040Z,4.95
2018-04-04T18:09:28.111Z,1.30
2018-04-04T18:11:56.135Z,1.87
2018-04-04T18:14:24.049Z,3.30
2018-04-04T18:16:52.120Z,1.65
2018-04-04T18:19:20.070Z,1.83
2018-04-04T18:21:48.499Z,1.67
2018-04-04T18:24:16.745Z,1.65
2018-04-04T18:26:44.934Z,4.90
2018-04-04T18:29:14.370Z,2.80
2018-04-04T18:31:42.291Z,6.30
2018-04-04T18:34:10.260Z,1.70
2018-04-04T18:36:38.639Z,3.05
2018-04-04T18:39:06.710Z,1.30
2018-04-04T18:41:37.772Z,2.65
2018-04-04T18:44:05.931Z,4.57
2018-04-04T18:46:34.000Z,1.23
2018-04-04T18:49:02.272Z,4.65
2018-04-04T18:51:30.307Z,4.12
2018-04-04T18:53:58.270Z,5.82
2018-04-04T18:56:26.486Z,3.25
2018-04-04T18:58:54.658Z,3.20
2018-04-04T19:01:24.985Z,2.20
2018-04-04T19:03:52.955Z,3.03
2018-04-04T19:06:21.330Z,4.72
2018-04-04T19:08:49.271Z,3.05
2018-04-04T19:11:17.638Z,1.40
2018-04-04T19:13:45.750Z,1.85
2018-04-04T19:16:13.718Z,2.12
2018-04-04T19:18:41.688Z,1.25
2018-04-04T19:21:09.663Z,3.17
2018-04-04T19:23:37.842Z,1.30
2018-04-04T19:26:07.540Z,4.85
2018-04-04T19:28:35.816Z,6.97
2018-04-04T19:31:03.787Z,3.97
2018-04-04T19:33:32.441Z,1.48
2018-04-04T19:36:00.646Z,2.12
2018-04-04T19:38:28.613Z,2.45
2018-04-04T19:40:56.583Z,2.50
2018-04-04T19:43:24.757Z,2.97
2018-04-04T19:45:52.724Z,4.00
2018-04-04T19:48:20.900Z,1.30
2018-04-04T19:50:48.868Z,3.50
2018-04-04T19:53:17.352Z,2.17
2018-04-04T19:55:45.317Z,1.75
2018-04-04T19:58:13.287Z,3.35
2018-04-04T20:00:41.665Z,1.98
2018-04-04T20:03:09.614Z,3.20
2018-04-04T20:05:37.501Z,2.95
2018-04-04T20:08:09.667Z,3.87
2018-04-04T20:10:38.408Z,7.47
2018-04-04T20:13:06.505Z,1.65
2018-04-04T20:15:35.173Z,2.15
2018-04-04T20:18:03.489Z,3.15
2018-04-04T20:20:31.766Z,4.62
2018-04-04T20:22:59.855Z,3.28
2018-04-04T20:25:27.913Z,1.60
2018-04-04T20:27:56.286Z,2.65
2018-04-04T20:30:24.315Z,6.00
2018-04-04T20:32:52.640Z,4.40
2018-04-04T20:35:20.603Z,4.40
2018-04-04T20:37:48.899Z,1.35
2018-04-04T20:40:16.914Z,3.20
2018-04-04T20:42:45.023Z,1.73
2018-04-04T20:45:13.073Z,2.87
2018-04-04T20:47:41.062Z,3.78
2018-04-04T20:50:09.056Z,3.72
2018-04-04T20:52:37.174Z,3.08
2018-04-04T20:55:05.481Z,3.78
2018-04-04T20:57:33.756Z,3.05
2018-04-04T21:00:01.624Z,3.58
2018-04-04T21:02:30.137Z,2.22
2018-04-04T21:04:58.995Z,3.15
2018-04-04T21:07:26.963Z,3.20
2018-04-04T21:09:55.662Z,5.00
2018-04-04T21:12:23.434Z,5.97
2018-04-04T21:14:51.488Z,4.60
2018-04-04T21:17:19.454Z,3.17
2018-04-04T21:19:47.734Z,2.62
2018-04-04T21:22:16.109Z,3.62
2018-04-04T21:24:44.693Z,3.25
2018-04-04T21:27:12.866Z,3.83
2018-04-04T21:29:41.404Z,5.95
2018-04-04T21:32:09.318Z,4.40
2018-04-04T21:34:37.188Z,6.30
2018-04-04T21:37:05.152Z,2.70
2018-04-04T21:39:33.529Z,2.72
2018-04-04T21:42:01.273Z,5.18
2018-04-04T21:44:29.058Z,2.45
2018-04-04T21:46:56.925Z,3.90
2018-04-04T21:49:24.688Z,5.85
2018-04-04T21:51:52.557Z,6.35
2018-04-04T21:54:20.417Z,2.80
2018-04-04T21:56:48.191Z,4.45
2018-04-04T21:59:15.926Z,2.12
2018-04-04T22:01:43.549Z,1.50
2018-04-04T22:04:11.480Z,2.50
2018-04-04T22:06:39.507Z,1.95
2018-04-04T22:09:07.106Z,1.87
2018-04-04T22:17:33.249Z,2.55
2018-04-04T22:20:00.849Z,1.55
2018-04-04T22:22:28.409Z,2.45
2018-04-04T22:24:56.157Z,2.08
2018-04-04T22:27:23.708Z,1.40
2018-04-04T22:29:51.283Z,1.65
2018-04-04T22:32:18.849Z,1.73
2018-04-04T22:34:46.437Z,1.30
2018-04-04T22:37:14.014Z,1.20
2018-04-04T22:39:41.721Z,1.95
2018-04-04T22:42:09.714Z,1.00
2018-04-04T22:44:37.426Z,1.35
2018-04-04T22:47:05.089Z,1.10
2018-04-04T22:49:32.702Z,2.65
2018-04-04T22:52:00.242Z,2.65
2018-04-04T22:54:27.994Z,1.23
2018-04-04T22:56:55.542Z,1.20
2018-04-04T22:59:23.100Z,1.45
2018-04-04T23:01:50.681Z,1.65
2018-04-04T23:04:18.232Z,1.40
2018-04-04T23:06:46.222Z,1.23
2018-04-04T23:09:13.773Z,1.00
2018-04-04T23:20:13.391Z,1.42
2018-04-04T23:22:40.939Z,2.08
2018-04-04T23:25:09.061Z,1.48
2018-04-04T23:27:36.695Z,1.20
2018-04-04T23:30:04.246Z,0.98
2018-04-04T23:32:31.826Z,1.30
2018-04-04T23:34:59.379Z,0.95
2018-04-04T23:37:26.963Z,1.30
2018-04-04T23:39:54.508Z,1.25
2018-04-04T23:42:22.055Z,2.30
2018-04-04T23:44:49.637Z,1.02
2018-04-04T23:47:17.209Z,1.40
2018-04-04T23:49:44.958Z,1.52
2018-04-04T23:52:12.508Z,1.75
2018-04-04T23:54:40.052Z,2.72
2018-04-04T23:57:07.621Z,1.08
2018-04-04T23:59:35.172Z,1.00
